Time;durP1;ratioP1;P1;durP2;ratioP2;P2;SDS_P1;SDS_P2;PMS_P1;PMS_P2;Temp;Humidity;BMP_temperature;BMP_pressure;BME280_temperature;BME280_humidity;BME280_pressure;Samples;Min_cycle;Max_cycle;Signal;HPM_P1;HPM_P2
2022/09/03 00:00:54;;;;;;;1999.90;999.90;;;16.10;1.00;;;;;;5155502;27;20043;-75
2022/09/03 00:03:42;;;;;;;1999.90;999.90;;;16.00;1.00;;;;;;5155700;27;20043;-75
2022/09/03 00:06:22;;;;;;;1999.90;999.90;;;16.00;1.00;;;;;;5136586;27;20059;-75
2022/09/03 00:09:11;;;;;;;1999.90;999.90;;;15.90;1.00;;;;;;5136210;27;20046;-75
2022/09/03 00:11:52;;;;;;;1999.90;999.90;;;15.80;1.00;;;;;;5136610;27;20130;-75
2022/09/03 00:14:33;;;;;;;1999.90;999.90;;;15.70;1.00;;;;;;5155703;27;20103;-75
2022/09/03 00:17:08;;;;;;;1999.90;999.90;;;15.70;1.00;;;;;;5155323;27;20130;-75
2022/09/03 00:19:46;;;;;;;1711.50;793.90;;;15.70;1.00;;;;;;5137171;27;20407;-75
2022/09/03 00:22:20;;;;;;;;;;;15.60;1.00;;;;;;5156322;27;20050;-75
2022/09/03 00:24:48;;;;;;;1999.90;999.90;;;15.50;1.00;;;;;;5136770;27;19919;-79
2022/09/03 00:27:20;;;;;;;1999.90;999.90;;;15.50;1.00;;;;;;5155152;27;20047;-75
2022/09/03 00:29:56;;;;;;;1999.90;999.90;;;15.40;1.00;;;;;;5154294;27;20521;-75
2022/09/03 00:33:00;;;;;;;1999.90;999.90;;;15.40;1.00;;;;;;5155303;27;20043;-75
2022/09/03 00:35:31;;;;;;;1999.90;545.15;;;15.30;1.00;;;;;;5034154;28;20044;-75
2022/09/03 00:37:57;;;;;;;1999.90;999.90;;;15.20;1.00;;;;;;5121081;27;20411;-75
2022/09/03 00:40:43;;;;;;;1380.95;333.60;;;15.20;1.00;;;;;;5136144;27;20054;-75
2022/09/03 00:43:16;;;;;;;1503.25;350.40;;;15.10;1.00;;;;;;5136702;27;20121;-77
2022/09/03 00:45:56;;;;;;;1999.90;999.90;;;15.10;1.00;;;;;;5153370;27;20483;-75
2022/09/03 00:48:27;;;;;;;1999.90;999.90;;;15.00;1.00;;;;;;5154977;27;20054;-75
2022/09/03 00:51:08;;;;;;;1999.90;999.90;;;15.00;1.00;;;;;;5154461;27;20034;-75
2022/09/03 00:53:52;;;;;;;1999.90;999.90;;;15.00;1.00;;;;;;5136402;27;20367;-75
2022/09/03 00:56:43;;;;;;;1999.90;999.90;;;14.90;1.00;;;;;;5154738;27;20039;-77
2022/09/03 00:59:25;;;;;;;1999.90;999.90;;;14.80;1.00;;;;;;5154999;27;20043;-75
2022/09/03 01:02:02;;;;;;;1999.90;999.90;;;14.80;1.00;;;;;;5118842;27;20042;-75
2022/09/03 01:04:45;;;;;;;1999.90;999.90;;;14.80;1.00;;;;;;5154637;27;20527;-75
2022/09/03 01:07:37;;;;;;;1999.90;999.90;;;14.80;1.00;;;;;;5154708;27;20096;-75
2022/09/03 01:10:12;;;;;;;1642.78;620.35;;;14.70;1.00;;;;;;5135837;27;20228;-75
2022/09/03 01:13:09;;;;;;;1999.90;999.90;;;14.70;1.00;;;;;;5154380;27;20387;-75
2022/09/03 01:16:05;;;;;;;1999.90;999.90;;;14.70;1.00;;;;;;5154264;27;20046;-75
2022/09/03 01:18:50;;;;;;;1999.90;999.90;;;14.70;1.00;;;;;;5154433;27;20046;-75
2022/09/03 01:21:48;;;;;;;1999.90;999.90;;;14.70;1.00;;;;;;5154511;27;20042;-75
2022/09/03 01:24:20;;;;;;;1999.90;999.90;;;14.60;1.00;;;;;;5121398;27;20057;-75
2022/09/03 01:27:21;;;;;;;1999.90;999.90;;;14.70;1.00;;;;;;5153682;27;20102;-75
2022/09/03 01:29:57;;;;;;;1999.90;999.90;;;14.60;1.00;;;;;;5049460;28;20063;-81
2022/09/03 01:32:45;;;;;;;1999.90;816.70;;;14.60;1.00;;;;;;5138595;27;20108;-74
2022/09/03 01:35:21;;;;;;;1999.90;537.00;;;14.60;1.00;;;;;;5153542;27;20043;-74
2022/09/03 01:37:57;;;;;;;1999.90;999.90;;;14.60;1.00;;;;;;5136115;27;20093;-74
2022/09/03 01:40:47;;;;;;;1999.90;999.90;;;14.50;1.00;;;;;;5153905;27;20042;-74
2022/09/03 01:43:53;;;;;;;1999.90;999.90;;;14.50;1.00;;;;;;5154060;27;20042;-78
2022/09/03 01:46:26;;;;;;;1999.90;999.90;;;14.50;1.00;;;;;;5102241;27;20117;-75
2022/09/03 01:49:19;;;;;;;1795.40;790.67;;;14.50;1.00;;;;;;5135328;27;20043;-76
2022/09/03 01:51:45;;;;;;;1999.90;999.90;;;14.50;1.00;;;;;;5135752;27;20051;-75
2022/09/03 01:54:35;;;;;;;1999.90;999.90;;;14.60;1.00;;;;;;5153822;27;20175;-75
2022/09/03 01:57:23;;;;;;;1999.90;999.90;;;14.50;1.00;;;;;;5135030;27;20038;-75
2022/09/03 01:59:58;;;;;;;1999.90;999.90;;;14.50;1.00;;;;;;5153832;27;20074;-78
2022/09/03 02:02:26;;;;;;;1999.90;999.90;;;14.50;1.00;;;;;;5154153;27;20054;-76
2022/09/03 02:05:08;;;;;;;1999.90;999.90;;;14.50;1.00;;;;;;5135211;27;20038;-76
2022/09/03 02:07:38;;;;;;;1999.90;999.90;;;14.50;1.00;;;;;;5135328;27;20042;-76
2022/09/03 02:10:16;;;;;;;1999.90;999.90;;;14.50;1.00;;;;;;5153182;27;20078;-76
2022/09/03 02:12:48;;;;;;;1999.90;999.90;;;14.50;1.00;;;;;;5153847;27;20121;-77
2022/09/03 02:15:18;;;;;;;1999.90;784.78;;;14.50;1.00;;;;;;5153804;27;20042;-76
2022/09/03 02:17:46;;;;;;;1999.90;487.17;;;14.50;1.00;;;;;;5134968;27;20125;-76
2022/09/03 02:20:18;;;;;;;1883.55;848.35;;;14.60;1.00;;;;;;5152818;27;20322;-76
2022/09/03 02:22:46;;;;;;;1999.90;999.90;;;14.60;1.00;;;;;;5135468;27;20432;-77
2022/09/03 02:25:12;;;;;;;1999.90;999.90;;;14.60;1.00;;;;;;5134490;27;20122;-76
2022/09/03 02:27:38;;;;;;;1999.90;999.90;;;14.60;1.00;;;;;;5153522;27;20432;-76
2022/09/03 02:30:05;;;;;;;1999.90;999.90;;;14.60;1.00;;;;;;5152755;27;20065;-76
2022/09/03 02:32:31;;;;;;;1999.90;650.80;;;14.60;1.00;;;;;;5134686;27;20073;-76
2022/09/03 02:34:57;;;;;;;1825.80;806.10;;;14.60;1.00;;;;;;5136756;27;20498;-75
2022/09/03 02:37:23;;;;;;;1999.90;912.20;;;14.60;1.00;;;;;;5157393;27;20183;-75
2022/09/03 02:39:50;;;;;;;1999.90;702.97;;;14.60;1.00;;;;;;5156931;27;20084;-75
2022/09/03 02:42:18;;;;;;;1999.90;999.90;;;14.70;1.00;;;;;;5138482;27;20050;-76
2022/09/03 02:45:17;;;;;;;1999.90;771.72;;;14.70;1.00;;;;;;5136805;27;20053;-76
2022/09/03 02:47:44;;;;;;;;;;;14.80;1.00;;;;;;5157330;27;20432;-75
2022/09/03 02:50:10;;;;;;;1999.90;432.08;;;14.80;1.00;;;;;;5138322;27;19926;-75
2022/09/03 02:52:35;;;;;;;1999.90;666.03;;;14.90;1.00;;;;;;5156678;27;20490;-75
2022/09/03 02:55:01;;;;;;;1999.90;999.90;;;14.90;1.00;;;;;;5120790;27;20146;-75
2022/09/03 02:57:27;;;;;;;1999.90;999.90;;;14.90;1.00;;;;;;5121448;27;20082;-75
2022/09/03 02:59:53;;;;;;;1999.90;999.90;;;14.90;1.00;;;;;;5156580;27;20038;-77
2022/09/03 03:02:19;;;;;;;1999.90;999.90;;;14.90;1.00;;;;;;5137782;27;20035;-77
2022/09/03 03:04:44;;;;;;;1999.90;999.90;;;14.90;1.00;;;;;;5138042;27;20129;-76
2022/09/03 03:07:10;;;;;;;1999.90;999.90;;;14.90;1.00;;;;;;5137544;27;20050;-76
2022/09/03 03:09:36;;;;;;;1999.90;999.90;;;15.00;1.00;;;;;;5138164;27;20046;-76
2022/09/03 03:12:02;;;;;;;1999.90;999.90;;;15.00;1.00;;;;;;5137205;27;20043;-76
2022/09/03 03:14:27;;;;;;;1999.90;999.90;;;15.00;1.00;;;;;;5138228;27;20049;-76
2022/09/03 03:16:53;;;;;;;1999.90;999.90;;;15.00;1.00;;;;;;5120734;27;20042;-76
2022/09/03 03:19:19;;;;;;;1999.90;999.90;;;15.00;1.00;;;;;;5137812;27;20078;-77
2022/09/03 03:21:44;;;;;;;1570.97;349.63;;;15.00;1.00;;;;;;5156144;27;20069;-77
2022/09/03 03:24:10;;;;;;;1999.90;999.90;;;15.10;1.00;;;;;;5155731;27;20074;-77
2022/09/03 03:26:36;;;;;;;1999.90;999.90;;;15.00;1.00;;;;;;5137122;27;20429;-77
2022/09/03 03:29:05;;;;;;;1999.90;999.90;;;15.00;1.00;;;;;;5155914;27;20030;-77
2022/09/03 03:31:32;;;;;;;1999.90;999.90;;;15.00;1.00;;;;;;5156042;27;20483;-77
2022/09/03 03:34:00;;;;;;;1999.90;999.90;;;15.10;1.00;;;;;;5137737;27;20043;-77
2022/09/03 03:36:29;;;;;;;1999.90;999.90;;;15.00;1.00;;;;;;5156519;27;20504;-77
2022/09/03 03:38:57;;;;;;;1999.90;999.90;;;15.00;1.00;;;;;;5137933;27;20039;-77
2022/09/03 03:41:26;;;;;;;1999.90;999.90;;;15.00;1.00;;;;;;5155913;27;20049;-78
2022/09/03 03:43:57;;;;;;;1999.90;999.90;;;15.00;1.00;;;;;;5136071;27;20046;-78
2022/09/03 03:46:27;;;;;;;1999.90;999.90;;;15.00;1.00;;;;;;5155123;27;20122;-76
2022/09/03 03:48:53;;;;;;;1999.90;970.05;;;15.00;1.00;;;;;;5137931;27;20107;-76
2022/09/03 03:51:18;;;;;;;1999.90;982.10;;;15.00;1.00;;;;;;5137550;27;20085;-76
2022/09/03 03:53:45;;;;;;;1999.90;999.90;;;14.90;1.00;;;;;;5137755;27;20485;-76
2022/09/03 03:56:13;;;;;;;1999.90;999.90;;;14.90;1.00;;;;;;5155216;27;20542;-76
2022/09/03 03:58:42;;;;;;;1999.90;999.90;;;14.90;1.00;;;;;;5137414;27;20039;-76
2022/09/03 04:01:17;;;;;;;1478.00;573.38;;;14.90;1.00;;;;;;5137187;27;20489;-76
2022/09/03 04:03:43;;;;;;;1394.32;578.90;;;14.90;1.00;;;;;;5120051;27;20054;-76
2022/09/03 04:06:11;;;;;;;1999.90;999.90;;;14.90;1.00;;;;;;5155327;27;20054;-77
2022/09/03 04:08:39;;;;;;;1999.90;999.90;;;14.90;1.00;;;;;;5120563;27;20116;-76
2022/09/03 04:11:08;;;;;;;1999.90;999.90;;;14.80;1.00;;;;;;5136736;27;20050;-76
2022/09/03 04:13:36;;;;;;;1999.90;965.92;;;14.80;1.00;;;;;;5155478;27;20042;-77
2022/09/03 04:16:08;;;;;;;1999.90;999.90;;;14.80;1.00;;;;;;5155403;27;20042;-76
2022/09/03 04:18:34;;;;;;;1999.90;983.92;;;14.80;1.00;;;;;;5137043;27;20046;-76
2022/09/03 04:21:35;;;;;;;1298.95;298.05;;;14.80;1.00;;;;;;5155430;27;20039;-77
2022/09/03 04:24:04;;;;;;;1999.90;999.90;;;14.70;1.00;;;;;;5034475;28;20053;-77
2022/09/03 04:26:31;;;;;;;1999.90;643.92;;;14.30;1.00;;;;;;5135624;27;20109;-77
2022/09/03 04:29:07;;;;;;;1999.90;999.90;;;14.60;1.00;;;;;;5155068;27;20049;-77
2022/09/03 04:31:35;;;;;;;1999.90;999.90;;;14.60;1.00;;;;;;5154658;27;20107;-76
2022/09/03 04:34:00;;;;;;;1999.90;999.90;;;14.50;1.00;;;;;;5154932;27;20050;-76
2022/09/03 04:36:29;;;;;;;1999.90;877.65;;;14.50;1.00;;;;;;5118980;27;20054;-76
2022/09/03 04:38:58;;;;;;;1979.03;478.77;;;14.50;1.00;;;;;;5154791;27;20167;-76
2022/09/03 04:41:26;;;;;;;1999.90;999.90;;;14.90;1.00;;;;;;5136344;27;20054;-77
2022/09/03 04:43:55;;;;;;;1648.40;604.33;;;14.40;1.00;;;;;;5153628;27;20118;-77
2022/09/03 04:46:22;;;;;;;1999.90;999.90;;;14.40;1.00;;;;;;5135982;27;20045;-75
2022/09/03 04:48:50;;;;;;;1464.10;461.05;;;14.40;1.00;;;;;;5119514;27;20463;-75
2022/09/03 04:51:19;;;;;;;1999.90;750.30;;;14.40;1.00;;;;;;5154624;27;20043;-75
2022/09/03 04:53:46;;;;;;;1999.90;999.90;;;14.40;1.00;;;;;;5154899;27;20046;-76
2022/09/03 04:56:17;;;;;;;1999.90;999.90;;;14.40;1.00;;;;;;5135370;27;20502;-77
2022/09/03 04:58:44;;;;;;;1505.78;400.83;;;14.40;1.00;;;;;;5153925;27;20061;-75
2022/09/03 05:01:11;;;;;;;1999.90;655.78;;;14.40;1.00;;;;;;5154367;27;20129;-75
2022/09/03 05:03:37;;;;;;;;;;;14.40;1.00;;;;;;5136935;27;20050;-76
2022/09/03 05:06:04;;;;;;;1999.90;980.10;;;14.40;1.00;;;;;;5154750;27;19923;-76
2022/09/03 05:08:31;;;;;;;1999.90;999.90;;;14.40;1.00;;;;;;5153954;27;20051;-76
2022/09/03 05:11:00;;;;;;;1999.90;999.90;;;14.40;1.00;;;;;;5154410;27;20103;-76
2022/09/03 05:13:27;;;;;;;1999.90;910.90;;;14.40;1.00;;;;;;5153975;27;20119;-78
2022/09/03 05:15:58;;;;;;;1999.90;999.90;;;15.30;1.00;;;;;;5119139;27;20047;-77
2022/09/03 05:18:24;;;;;;;1999.90;999.90;;;14.40;1.00;;;;;;5153970;27;20082;-76
2022/09/03 05:20:58;;;;;;;1998.50;659.83;;;14.40;1.00;;;;;;5118898;27;20047;-77
2022/09/03 05:23:25;;;;;;;1999.90;999.90;;;14.40;1.00;;;;;;5154210;27;20051;-76
2022/09/03 05:25:59;;;;;;;1999.90;999.90;;;14.30;1.00;;;;;;5118945;27;20043;-76
2022/09/03 05:28:26;;;;;;;1999.90;901.85;;;14.40;1.00;;;;;;5135303;27;20448;-76
2022/09/03 05:31:04;;;;;;;1999.90;999.90;;;14.30;1.00;;;;;;5154196;27;20055;-76
2022/09/03 05:33:33;;;;;;;1999.90;999.90;;;14.40;1.00;;;;;;5118462;27;20133;-75
2022/09/03 05:36:05;;;;;;;1999.90;999.90;;;14.30;1.00;;;;;;5154363;27;20095;-77
2022/09/03 05:38:31;;;;;;;1999.90;999.90;;;14.30;1.00;;;;;;5153764;27;20049;-76
2022/09/03 05:40:59;;;;;;;1999.90;489.13;;;14.40;1.00;;;;;;5135564;27;20090;-76
2022/09/03 05:43:26;;;;;;;1999.90;999.90;;;14.70;1.00;;;;;;5153207;27;20046;-77
2022/09/03 05:45:59;;;;;;;1999.90;999.90;;;14.50;1.00;;;;;;5151477;27;20509;-76
2022/09/03 05:48:26;;;;;;;1999.90;594.00;;;14.50;1.00;;;;;;5153665;27;20042;-76
2022/09/03 05:51:18;;;;;;;1999.90;999.90;;;14.50;1.00;;;;;;5135656;27;20066;-76
2022/09/03 05:53:47;;;;;;;1999.90;999.90;;;14.60;1.00;;;;;;5148442;27;20072;-76
2022/09/03 05:56:22;;;;;;;1999.90;999.90;;;14.50;1.00;;;;;;5153314;27;20125;-76
2022/09/03 05:58:50;;;;;;;1999.90;999.90;;;14.50;1.00;;;;;;5153596;27;20047;-76
2022/09/03 06:01:21;;;;;;;1671.82;789.42;;;14.50;1.00;;;;;;5153311;27;20038;-79
2022/09/03 06:03:53;;;;;;;1999.90;627.97;;;14.50;1.00;;;;;;5134989;27;20038;-78
2022/09/03 06:06:26;;;;;;;1999.90;999.90;;;14.50;1.00;;;;;;5117249;27;20046;-78
2022/09/03 06:08:58;;;;;;;1820.72;477.48;;;14.50;1.00;;;;;;5155829;27;20496;-78
2022/09/03 06:11:26;;;;;;;1999.90;750.53;;;14.50;1.00;;;;;;5157071;27;20129;-78
2022/09/03 06:13:56;;;;;;;1999.90;960.22;;;14.50;1.00;;;;;;5122521;27;20081;-78
2022/09/03 06:16:24;;;;;;;1999.90;999.90;;;14.50;1.00;;;;;;5121796;27;20049;-78
2022/09/03 06:18:50;;;;;;;1999.90;999.90;;;14.60;1.00;;;;;;5121169;27;20390;-78
2022/09/03 06:21:16;;;;;;;1999.90;999.90;;;14.70;1.00;;;;;;5155862;27;20043;-78
2022/09/03 06:23:42;;;;;;;1999.90;999.90;;;14.70;1.00;;;;;;5138209;27;20125;-78
2022/09/03 06:26:12;;;;;;;1999.90;486.10;;;14.80;1.00;;;;;;5157289;27;20042;-78
2022/09/03 06:28:42;;;;;;;1999.90;999.90;;;14.90;1.00;;;;;;5121317;27;20379;-78
2022/09/03 06:31:10;;;;;;;1999.90;999.90;;;14.90;1.00;;;;;;5157408;27;20487;-78
2022/09/03 06:33:37;;;;;;;1999.90;999.90;;;15.00;1.00;;;;;;5157092;27;20072;-78
2022/09/03 06:36:05;;;;;;;1999.90;999.90;;;15.00;1.00;;;;;;5138789;27;20068;-79
2022/09/03 06:38:34;;;;;;;1999.90;999.90;;;15.00;1.00;;;;;;5157129;27;20280;-79
2022/09/03 06:41:02;;;;;;;1999.90;999.90;;;15.10;1.00;;;;;;5138661;27;20057;-78
2022/09/03 06:43:29;;;;;;;1999.90;999.90;;;15.10;1.00;;;;;;5121148;27;20054;-79
2022/09/03 06:46:03;;;;;;;1999.90;999.90;;;15.20;1.00;;;;;;5154994;27;20050;-79
2022/09/03 06:48:31;;;;;;;1999.90;999.90;;;15.20;1.00;;;;;;5156159;27;20099;-78
2022/09/03 06:51:00;;;;;;;1999.90;999.90;;;15.30;1.00;;;;;;5156627;27;20499;-78
2022/09/03 06:53:26;;;;;;;1999.90;999.90;;;15.70;1.00;;;;;;5155361;27;20057;-81
2022/09/03 06:55:54;;;;;;;1999.90;999.90;;;15.50;1.00;;;;;;5156263;27;20039;-79
2022/09/03 06:58:20;;;;;;;1999.90;999.90;;;15.60;1.00;;;;;;5120409;27;20349;-78
2022/09/03 07:00:47;;;;;;;1999.90;529.20;;;15.70;1.00;;;;;;5156938;27;20039;-78
2022/09/03 07:03:13;;;;;;;1999.90;731.90;;;15.80;1.00;;;;;;5156341;27;20186;-78
2022/09/03 07:05:39;;;;;;;1999.90;999.90;;;15.80;1.00;;;;;;5156125;27;20515;-79
2022/09/03 07:08:04;;;;;;;1657.05;450.63;;;15.80;1.00;;;;;;5120553;27;20316;-79
2022/09/03 07:10:30;;;;;;;1989.22;284.33;;;15.90;1.00;;;;;;5154201;27;20062;-79
2022/09/03 07:12:58;;;;;;;1999.90;999.90;;;16.00;1.00;;;;;;5156062;27;20046;-79
2022/09/03 07:15:25;;;;;;;1999.90;999.90;;;16.10;1.00;;;;;;5156325;27;20043;-79
2022/09/03 07:17:51;;;;;;;1999.90;999.90;;;16.10;1.00;;;;;;5137263;27;20512;-81
2022/09/03 07:20:16;;;;;;;1948.80;591.13;;;16.10;1.00;;;;;;5155568;27;20039;-80
2022/09/03 07:22:42;;;;;;;1999.90;999.90;;;16.20;1.00;;;;;;5156322;27;20047;-81
2022/09/03 07:25:08;;;;;;;1999.90;999.90;;;16.30;1.00;;;;;;5138014;27;20203;-81
2022/09/03 07:27:34;;;;;;;1999.90;999.90;;;16.30;1.00;;;;;;5155609;27;20138;-81
2022/09/03 07:30:01;;;;;;;1999.90;999.90;;;16.40;1.00;;;;;;5116801;27;20055;-81
2022/09/03 07:32:27;;;;;;;1999.90;999.90;;;16.50;1.00;;;;;;5133909;27;20043;-82
2022/09/03 07:34:53;;;;;;;1999.90;999.90;;;17.60;1.00;;;;;;5135749;27;20047;-80
2022/09/03 07:37:18;;;;;;;1908.50;807.33;;;19.10;1.00;;;;;;5134242;27;20047;-83
2022/09/03 07:39:45;;;;;;;1999.90;999.90;;;20.70;1.00;;;;;;5134049;27;20042;-83
2022/09/03 07:42:11;;;;;;;1999.90;999.90;;;21.90;1.00;;;;;;5133574;27;20085;-83
2022/09/03 07:44:37;;;;;;;1999.90;999.90;;;23.10;1.00;;;;;;5113794;27;20078;-83
2022/09/03 07:47:02;;;;;;;1999.90;999.90;;;24.30;1.00;;;;;;5116018;27;20062;-84
2022/09/03 07:49:28;;;;;;;1999.90;999.90;;;25.10;1.00;;;;;;5134301;27;20055;-84
2022/09/03 07:51:57;;;;;;;1999.90;999.90;;;25.60;99.90;;;;;;5133525;27;20043;-83
2022/09/03 07:54:25;;;;;;;1999.90;999.90;;;26.50;99.90;;;;;;5134914;27;20121;-83
2022/09/03 07:56:51;;;;;;;1999.90;999.90;;;26.70;99.90;;;;;;5116468;27;20051;-83
2022/09/03 07:59:18;;;;;;;1999.90;999.90;;;26.90;99.90;;;;;;5133733;27;20432;-83
2022/09/03 08:01:43;;;;;;;1999.90;999.90;;;26.80;99.90;;;;;;5134912;27;20482;-84
2022/09/03 08:04:10;;;;;;;1999.90;999.90;;;26.80;99.90;;;;;;5134182;27;20078;-83
2022/09/03 08:06:39;;;;;;;1999.90;999.90;;;26.80;99.90;;;;;;5133979;27;20399;-82
2022/09/03 08:09:07;;;;;;;1999.90;999.90;;;27.60;99.90;;;;;;5135166;27;20288;-82
2022/09/03 08:11:37;;;;;;;1999.90;999.90;;;27.80;99.90;;;;;;5134195;27;20043;-83
2022/09/03 08:14:08;;;;;;;1999.90;999.90;;;27.80;99.90;;;;;;5134846;27;20119;-83
2022/09/03 08:16:37;;;;;;;1999.90;999.90;;;28.20;99.90;;;;;;5133413;27;20043;-83
2022/09/03 08:19:04;;;;;;;1999.90;999.90;;;28.60;99.90;;;;;;5134730;27;20047;-83
2022/09/03 08:21:30;;;;;;;1999.90;999.90;;;28.40;99.90;;;;;;5115141;27;20100;-83
2022/09/03 08:24:03;;;;;;;1999.90;999.90;;;28.70;99.90;;;;;;5134400;27;20061;-82
2022/09/03 08:26:30;;;;;;;1999.90;999.90;;;28.20;99.90;;;;;;5134016;27;20467;-83
2022/09/03 08:28:56;;;;;;;;;;;28.30;99.90;;;;;;5116266;27;20430;-83
2022/09/03 08:31:23;;;;;;;1999.90;999.90;;;29.00;99.90;;;;;;5149803;27;19914;-82
2022/09/03 08:33:54;;;;;;;1999.90;999.90;;;29.00;99.90;;;;;;5134428;27;20051;-82
2022/09/03 08:36:32;;;;;;;1999.90;999.90;;;28.70;99.90;;;;;;5136339;27;20053;-83
2022/09/03 08:39:02;;;;;;;1999.90;999.90;;;28.30;99.90;;;;;;5136298;27;20474;-83
2022/09/03 08:41:49;;;;;;;1999.90;999.90;;;29.40;99.90;;;;;;5154496;27;20091;-83
2022/09/03 08:44:20;;;;;;;1999.90;999.90;;;30.10;99.90;;;;;;5152890;27;20212;-84
2022/09/03 08:46:56;;;;;;;1999.90;999.90;;;31.20;99.90;;;;;;5153876;27;20042;-83
2022/09/03 08:49:47;;;;;;;1999.90;999.90;;;31.70;99.90;;;;;;5135761;27;20479;-84
2022/09/03 08:52:31;;;;;;;1999.90;999.90;;;32.20;99.90;;;;;;5135709;27;20039;-86
2022/09/03 08:55:18;;;;;;;1999.90;999.90;;;31.70;99.90;;;;;;5152981;27;20056;-89
2022/09/03 08:57:50;;;;;;;1999.90;999.90;;;31.90;99.90;;;;;;5135634;27;20076;-85
2022/09/03 09:00:17;;;;;;;1999.90;999.90;;;32.30;99.90;;;;;;5135752;27;20055;-83
2022/09/03 09:03:03;;;;;;;1999.90;999.90;;;33.30;99.90;;;;;;5117942;27;20106;-88
2022/09/03 09:05:53;;;;;;;1999.90;999.90;;;32.80;99.90;;;;;;5135199;27;20042;-92
2022/09/03 09:08:50;;;;;;;1999.90;999.90;;;33.20;99.90;;;;;;5118782;27;20125;-86
2022/09/03 09:11:30;;;;;;;1999.90;999.90;;;33.20;99.90;;;;;;5153006;27;20046;-84
2022/09/03 09:14:02;;;;;;;1999.90;999.90;;;32.40;99.90;;;;;;5135482;27;20042;-85
2022/09/03 09:16:59;;;;;;;1999.90;999.90;;;32.60;99.90;;;;;;5154165;27;20039;-82
2022/09/03 09:19:48;;;;;;;1999.90;999.90;;;32.50;99.90;;;;;;5135530;27;20044;-82
2022/09/03 09:22:31;;;;;;;1999.90;999.90;;;32.40;99.90;;;;;;5153807;27;20051;-83
2022/09/03 09:25:03;;;;;;;1999.90;999.90;;;33.20;99.90;;;;;;5153260;27;20057;-82
2022/09/03 09:27:29;;;;;;;1999.90;999.90;;;34.10;99.90;;;;;;5153688;27;20054;-83
2022/09/03 09:30:03;;;;;;;1999.90;999.90;;;34.00;99.90;;;;;;5132805;27;20059;-89
2022/09/03 09:32:30;;;;;;;1999.90;999.90;;;33.30;99.90;;;;;;5134712;27;20055;-86
2022/09/03 09:34:58;;;;;;;1999.90;999.90;;;33.50;99.90;;;;;;5135456;27;20050;-84
2022/09/03 09:37:24;;;;;;;1999.90;999.90;;;34.10;99.90;;;;;;5135445;27;20049;-84
2022/09/03 09:39:59;;;;;;;1999.90;999.90;;;34.90;99.90;;;;;;5101240;27;20534;-85
2022/09/03 09:42:29;;;;;;;1999.90;999.90;;;35.50;99.90;;;;;;5135269;27;20042;-87
2022/09/03 09:45:08;;;;;;;1999.90;999.90;;;35.10;99.90;;;;;;5116669;27;20107;-89
2022/09/03 09:47:39;;;;;;;1999.90;999.90;;;35.80;99.90;;;;;;5118127;27;20057;-86
2022/09/03 09:50:20;;;;;;;1999.90;999.90;;;36.50;99.90;;;;;;5135026;27;20039;-87
2022/09/03 09:52:46;;;;;;;1999.90;999.90;;;35.80;99.90;;;;;;5135127;27;20046;-86
2022/09/03 09:55:22;;;;;;;1999.90;999.90;;;35.60;99.90;;;;;;5135552;27;20586;-85
2022/09/03 09:58:07;;;;;;;1999.90;999.90;;;36.40;99.90;;;;;;5153087;27;20050;-83
2022/09/03 10:00:36;;;;;;;1999.90;999.90;;;35.80;99.90;;;;;;5134855;27;20047;-85
2022/09/03 10:03:09;;;;;;;1999.90;999.90;;;35.80;99.90;;;;;;5117219;27;20444;-82
2022/09/03 10:05:38;;;;;;;1999.90;999.90;;;36.30;99.90;;;;;;5153814;27;20064;-85
2022/09/03 10:08:20;;;;;;;1999.90;999.90;;;36.50;99.90;;;;;;5134505;27;20510;-85
2022/09/03 10:10:52;;;;;;;1999.90;999.90;;;36.60;99.90;;;;;;5152163;27;20513;-86
2022/09/03 10:13:26;;;;;;;1999.90;999.90;;;36.60;99.90;;;;;;5117616;27;20461;-86
2022/09/03 10:16:26;;;;;;;1999.90;999.90;;;36.50;99.90;;;;;;5118039;27;20046;-85
2022/09/03 10:19:01;;;;;;;1999.90;999.90;;;35.80;99.90;;;;;;5123018;27;20072;-86
2022/09/03 10:21:46;;;;;;;1999.90;999.90;;;35.20;99.90;;;;;;5135361;27;20134;-86
2022/09/03 10:24:49;;;;;;;1999.90;999.90;;;34.90;99.90;;;;;;5134954;27;20049;-87
2022/09/03 10:27:17;;;;;;;1999.90;999.90;;;35.00;99.90;;;;;;5153514;27;20047;-86
2022/09/03 10:29:44;;;;;;;1999.90;999.90;;;35.40;99.90;;;;;;5135143;27;20498;-90
2022/09/03 10:32:30;;;;;;;1999.90;999.90;;;34.00;99.90;;;;;;5134398;27;20054;-90
2022/09/03 10:35:36;;;;;;;1999.90;999.90;;;34.30;99.90;;;;;;5117883;27;20053;-88
2022/09/03 10:38:17;;;;;;;1999.90;999.90;;;34.30;99.90;;;;;;5068052;27;20079;-90
2022/09/03 10:41:19;;;;;;;1999.90;999.90;;;34.00;99.90;;;;;;5153574;27;20455;-90
2022/09/03 10:44:13;;;;;;;1999.90;999.90;;;34.30;99.90;;;;;;5116762;27;20406;-89
2022/09/03 10:47:11;;;;;;;1999.90;999.90;;;34.00;99.90;;;;;;5117506;27;20049;-88
2022/09/03 10:49:43;;;;;;;1999.90;999.90;;;34.90;99.90;;;;;;5134980;27;20205;-87
2022/09/03 10:59:32;;;;;;;1999.90;999.90;;;36.30;99.90;;;;;;5063603;27;20042;-91
2022/09/03 11:03:20;;;;;;;1999.90;999.90;;;35.60;99.90;;;;;;5120905;27;20125;-86
2022/09/03 11:06:14;;;;;;;1999.90;999.90;;;35.30;99.90;;;;;;5035862;28;20037;-86
2022/09/03 11:08:52;;;;;;;1999.90;999.90;;;34.70;99.90;;;;;;5051898;28;20041;-89
2022/09/03 11:11:28;;;;;;;;;;;35.10;99.90;;;;;;5137623;27;20035;-88
2022/09/03 11:14:08;;;;;;;1999.90;999.90;;;34.80;99.90;;;;;;5119307;27;19926;-87
2022/09/03 11:16:50;;;;;;;1999.90;999.90;;;34.70;99.90;;;;;;5120010;27;20054;-86
2022/09/03 11:19:19;;;;;;;1999.90;999.90;;;34.90;99.90;;;;;;5137730;27;20450;-88
2022/09/03 11:21:47;;;;;;;1999.90;999.90;;;34.30;99.90;;;;;;5155810;27;20095;-87
2022/09/03 11:24:23;;;;;;;1999.90;999.90;;;34.90;99.90;;;;;;5155993;27;20122;-86
2022/09/03 11:27:19;;;;;;;1999.90;999.90;;;35.50;99.90;;;;;;5136971;27;20116;-87
2022/09/03 11:29:59;;;;;;;1999.90;999.90;;;36.40;99.90;;;;;;5156475;27;20129;-86
2022/09/03 11:32:42;;;;;;;1999.90;999.90;;;36.30;99.90;;;;;;5137820;27;20485;-88
2022/09/03 11:35:24;;;;;;;1999.90;999.90;;;37.10;99.90;;;;;;5137507;27;20043;-89
2022/09/03 11:38:02;;;;;;;1999.90;999.90;;;35.60;99.90;;;;;;5152354;27;20039;-88
2022/09/03 11:40:40;;;;;;;1999.90;999.90;;;35.70;99.90;;;;;;5120319;27;20446;-87
2022/09/03 11:43:30;;;;;;;1999.90;999.90;;;35.40;99.90;;;;;;5136802;27;20059;-88
2022/09/03 11:46:20;;;;;;;1999.90;999.90;;;35.60;99.90;;;;;;5136620;27;20391;-88
2022/09/03 11:48:48;;;;;;;1999.90;999.90;;;35.50;99.90;;;;;;5137236;27;20102;-87
2022/09/03 11:51:36;;;;;;;1999.90;999.90;;;35.20;99.90;;;;;;5119083;27;20112;-90
2022/09/03 11:54:05;;;;;;;;;;;34.80;99.90;;;;;;5120448;27;20486;-88
2022/09/03 11:56:34;;;;;;;1999.90;999.90;;;34.50;99.90;;;;;;5119259;27;20026;-87
2022/09/03 11:59:12;;;;;;;1999.90;999.90;;;35.20;99.90;;;;;;5120435;27;20078;-86
2022/09/03 12:01:43;;;;;;;1999.90;999.90;;;35.90;99.90;;;;;;5119972;27;20039;-87
2022/09/03 12:04:17;;;;;;;1999.90;999.90;;;36.30;99.90;;;;;;5136223;27;20043;-87
2022/09/03 12:07:17;;;;;;;1999.90;999.90;;;37.00;99.90;;;;;;5155201;27;20064;-87
2022/09/03 12:10:13;;;;;;;1999.90;999.90;;;36.70;99.90;;;;;;5119868;27;20431;-88
2022/09/03 12:13:20;;;;;;;1999.90;999.90;;;37.20;99.90;;;;;;5154532;27;20051;-85
2022/09/03 12:16:20;;;;;;;1999.90;999.90;;;36.90;99.90;;;;;;5034324;28;20132;-89
2022/09/03 12:18:51;;;;;;;1999.90;999.90;;;35.10;99.90;;;;;;5117967;27;20046;-88
2022/09/03 12:21:20;;;;;;;1999.90;999.90;;;34.30;99.90;;;;;;5104142;27;20046;-86
2022/09/03 12:23:48;;;;;;;1999.90;999.90;;;33.90;99.90;;;;;;5136789;27;20065;-87
2022/09/03 12:26:17;;;;;;;1999.90;999.90;;;33.10;99.90;;;;;;5154587;27;20190;-89
2022/09/03 12:28:47;;;;;;;1999.90;999.90;;;31.90;99.90;;;;;;5155259;27;20055;-89
2022/09/03 12:31:24;;;;;;;1999.90;999.90;;;31.30;99.90;;;;;;5154652;27;20077;-87
2022/09/03 12:33:57;;;;;;;;;;;30.70;99.90;;;;;;5136682;27;20051;-86
2022/09/03 12:43:37;;;;;;;1999.90;999.90;;;29.00;99.90;;;;;;5070619;28;20424;-91
2022/09/03 12:46:04;;;;;;;1999.90;999.90;;;28.60;99.90;;;;;;5052293;28;20052;-90
2022/09/03 12:48:30;;;;;;;1999.90;999.90;;;28.30;99.90;;;;;;5053788;28;20144;-86
2022/09/03 12:51:06;;;;;;;1999.90;999.90;;;28.10;99.90;;;;;;5053430;28;20123;-93
2022/09/03 12:53:43;;;;;;;1999.90;999.90;;;28.00;99.90;;;;;;5021510;28;20063;-90
2022/09/03 12:56:09;;;;;;;1999.90;999.90;;;27.90;99.90;;;;;;5052588;28;20056;-89